createdAt,value
2022-11-07T00:02:22.166Z,13.20
2022-11-07T00:04:55.266Z,16.52
2022-11-07T00:07:27.773Z,15.73
2022-11-07T00:10:00.648Z,16.15
2022-11-07T00:12:36.753Z,16.73
2022-11-07T00:15:09.772Z,14.40
2022-11-07T00:17:42.414Z,12.65
2022-11-07T00:20:15.974Z,14.32
2022-11-07T00:22:48.502Z,15.27
2022-11-07T00:25:21.329Z,13.98
2022-11-07T00:27:53.877Z,15.35
2022-11-07T00:30:26.873Z,14.95
2022-11-07T00:33:00.444Z,14.63
2022-11-07T00:35:33.532Z,14.68
2022-11-07T00:38:06.079Z,15.23
2022-11-07T00:40:38.972Z,13.65
2022-11-07T00:43:12.093Z,11.75
2022-11-07T00:45:45.160Z,13.45
2022-11-07T00:48:17.802Z,12.73
2022-11-07T00:50:50.685Z,14.05
2022-11-07T00:53:23.521Z,13.65
2022-11-07T00:56:00.592Z,11.60
2022-11-07T00:58:33.268Z,10.82
2022-11-07T01:01:14.879Z,9.13
2022-11-07T01:04:06.231Z,9.80
2022-11-07T01:06:41.236Z,8.10
2022-11-07T01:09:15.712Z,8.32
2022-11-07T01:11:49.195Z,7.20
2022-11-07T01:14:22.738Z,7.97
2022-11-07T01:16:55.875Z,7.68
2022-11-07T01:19:28.411Z,6.45
2022-11-07T01:22:01.300Z,8.13
2022-11-07T01:24:33.977Z,7.03
2022-11-07T01:27:06.909Z,7.90
2022-11-07T01:29:39.726Z,7.22
2022-11-07T01:32:12.581Z,6.95
2022-11-07T01:34:45.235Z,7.70
2022-11-07T01:37:18.210Z,6.72
2022-11-07T01:39:50.776Z,7.93
2022-11-07T01:42:23.785Z,9.48
2022-11-07T01:44:58.209Z,6.55
2022-11-07T01:47:33.519Z,7.10
2022-11-07T01:50:06.898Z,6.57
2022-11-07T01:52:42.213Z,7.20
2022-11-07T01:55:33.917Z,7.38
2022-11-07T01:58:08.699Z,7.10
2022-11-07T02:00:41.667Z,7.57
2022-11-07T02:03:17.077Z,6.53
2022-11-07T02:05:54.835Z,8.45
2022-11-07T02:08:28.467Z,6.50
2022-11-07T02:11:02.996Z,6.97
2022-11-07T02:13:36.246Z,7.45
2022-11-07T02:16:08.917Z,8.02
2022-11-07T02:18:43.774Z,9.00
2022-11-07T02:21:30.588Z,7.60
2022-11-07T02:24:09.585Z,10.07
2022-11-07T02:26:42.995Z,7.63
2022-11-07T02:29:16.182Z,9.85
2022-11-07T02:31:48.702Z,10.60
2022-11-07T02:34:21.547Z,9.07
2022-11-07T02:36:54.169Z,8.90
2022-11-07T02:39:27.400Z,10.32
2022-11-07T02:42:00.515Z,10.90
2022-11-07T02:44:33.955Z,8.65
2022-11-07T02:47:06.419Z,9.05
2022-11-07T02:49:39.298Z,11.73
2022-11-07T02:52:11.778Z,10.48
2022-11-07T02:54:44.653Z,11.27
2022-11-07T02:57:17.158Z,11.52
2022-11-07T02:59:49.944Z,10.63
2022-11-07T03:02:22.828Z,10.55
2022-11-07T03:04:55.747Z,11.05
2022-11-07T03:07:28.443Z,10.95
2022-11-07T03:10:01.334Z,8.63
2022-11-07T03:12:33.762Z,9.85
2022-11-07T03:15:07.909Z,10.52
2022-11-07T03:17:41.080Z,11.07
2022-11-07T03:20:13.960Z,9.95
2022-11-07T03:22:49.437Z,8.77
2022-11-07T03:25:22.342Z,8.25
2022-11-07T03:27:55.226Z,10.10
2022-11-07T03:30:28.119Z,9.55
2022-11-07T03:33:00.800Z,10.40
2022-11-07T03:35:33.658Z,8.98
2022-11-07T03:38:06.151Z,9.60
2022-11-07T03:40:39.918Z,10.65
2022-11-07T03:43:12.690Z,9.15
2022-11-07T03:45:45.788Z,8.90
2022-11-07T03:48:18.332Z,7.32
2022-11-07T03:50:51.434Z,7.70
2022-11-07T03:53:25.813Z,7.85
2022-11-07T03:55:59.226Z,6.45
2022-11-07T03:58:31.811Z,7.97
2022-11-07T04:01:05.085Z,6.95
2022-11-07T04:03:37.642Z,8.18
2022-11-07T04:06:10.472Z,7.50
2022-11-07T04:08:43.050Z,8.02
2022-11-07T04:11:35.784Z,6.50
2022-11-07T04:14:27.047Z,5.53
2022-11-07T04:17:18.278Z,6.57
2022-11-07T04:19:52.251Z,5.65
2022-11-07T04:22:25.790Z,3.97
2022-11-07T04:24:58.547Z,5.20
2022-11-07T04:27:43.722Z,4.78
2022-11-07T04:30:20.256Z,5.13
2022-11-07T04:32:54.087Z,5.22
2022-11-07T04:35:27.925Z,5.57
2022-11-07T04:38:01.231Z,5.13
2022-11-07T04:40:33.829Z,4.05
2022-11-07T04:43:09.535Z,6.13
2022-11-07T04:45:41.989Z,4.70
2022-11-07T04:48:15.068Z,5.45
2022-11-07T04:50:47.840Z,4.13
2022-11-07T04:53:20.783Z,5.43
2022-11-07T04:55:53.432Z,5.80
2022-11-07T04:58:26.380Z,4.00
2022-11-07T05:00:58.842Z,4.80
2022-11-07T05:03:31.685Z,5.25
2022-11-07T05:06:05.067Z,4.35
2022-11-07T05:08:37.892Z,4.28
2022-11-07T05:11:10.446Z,4.70
2022-11-07T05:13:43.295Z,4.25
2022-11-07T05:16:19.949Z,3.58
2022-11-07T05:18:52.832Z,3.22
2022-11-07T05:21:25.490Z,4.05
2022-11-07T05:23:58.472Z,4.57
2022-11-07T13:34:27.633Z,1.90
2022-11-07T13:37:03.630Z,1.75
2022-11-07T13:39:37.021Z,1.45
2022-11-07T13:42:15.103Z,1.65
2022-11-07T13:44:55.997Z,1.60
2022-11-07T13:47:33.424Z,2.03
2022-11-07T13:50:17.187Z,1.58
2022-11-07T13:52:57.315Z,2.25
2022-11-07T13:55:34.939Z,1.95
2022-11-07T13:58:10.480Z,1.98
2022-11-07T14:00:43.111Z,2.00
2022-11-07T14:03:23.730Z,3.70
2022-11-07T14:05:56.843Z,2.28
2022-11-07T14:08:31.699Z,1.50
2022-11-07T14:11:12.964Z,1.27
2022-11-07T14:13:47.046Z,3.58
2022-11-07T14:16:27.018Z,2.75
2022-11-07T14:19:01.097Z,2.85
2022-11-07T14:21:34.955Z,1.92
2022-11-07T14:24:22.066Z,2.20
2022-11-07T14:26:59.012Z,4.50
2022-11-07T14:29:32.315Z,3.45
2022-11-07T14:32:05.933Z,2.85
2022-11-07T14:34:43.629Z,3.63
2022-11-07T14:37:20.382Z,3.75
2022-11-07T14:39:53.679Z,3.75
2022-11-07T14:42:26.454Z,4.60
2022-11-07T14:44:59.468Z,7.55
2022-11-07T14:47:33.584Z,5.57
2022-11-07T14:50:07.212Z,5.03
2022-11-07T14:52:42.048Z,5.18
2022-11-07T14:55:21.368Z,6.25
2022-11-07T14:57:54.058Z,4.60
2022-11-07T15:00:27.075Z,6.93
2022-11-07T15:03:00.111Z,5.78
2022-11-07T15:05:38.922Z,4.70
2022-11-07T15:08:29.037Z,4.63
2022-11-07T15:11:01.996Z,5.18
2022-11-07T15:13:35.389Z,4.18
2022-11-07T15:16:15.238Z,4.07
2022-11-07T15:18:49.060Z,4.28
2022-11-07T15:21:31.090Z,3.38
2022-11-07T15:24:22.147Z,3.53
2022-11-07T15:26:58.576Z,3.03
2022-11-07T15:29:33.206Z,4.25
2022-11-07T15:32:12.022Z,3.10
2022-11-07T15:35:03.663Z,3.83
2022-11-07T15:37:37.702Z,5.90
2022-11-07T15:40:13.792Z,8.40
2022-11-07T15:42:46.868Z,10.40
2022-11-07T15:45:19.483Z,8.65
2022-11-07T15:47:52.667Z,6.28
2022-11-07T15:52:58.136Z,6.60
2022-11-07T15:55:30.633Z,6.15
2022-11-07T15:58:03.450Z,10.48
2022-11-07T16:00:36.012Z,9.77
2022-11-07T16:03:13.030Z,8.50
2022-11-07T16:05:46.361Z,10.30
2022-11-07T16:08:20.450Z,9.52
2022-11-07T16:10:57.082Z,10.50
2022-11-07T16:13:30.025Z,9.45
2022-11-07T16:16:03.228Z,10.00
2022-11-07T16:18:42.732Z,7.93
2022-11-07T16:21:15.282Z,10.80
2022-11-07T16:23:50.747Z,8.73
2022-11-07T16:26:27.814Z,8.73
2022-11-07T16:29:00.716Z,14.63
2022-11-07T16:31:33.320Z,14.45
2022-11-07T16:34:06.415Z,8.32
2022-11-07T16:36:39.677Z,5.30
2022-11-07T16:39:17.219Z,5.55
2022-11-07T16:41:53.890Z,6.80
2022-11-07T16:44:26.888Z,5.57
2022-11-07T16:47:00.349Z,5.40
2022-11-07T16:49:34.190Z,5.50
2022-11-07T16:52:06.771Z,6.20
2022-11-07T16:54:40.248Z,8.15
2022-11-07T16:57:13.506Z,8.52
2022-11-07T16:59:46.740Z,10.73
2022-11-07T17:02:21.803Z,16.38
2022-11-07T17:04:55.040Z,16.55
2022-11-07T17:07:27.487Z,10.63
2022-11-07T17:10:01.648Z,8.27
2022-11-07T17:12:34.694Z,8.02
2022-11-07T17:15:07.789Z,15.45
2022-11-07T17:17:40.577Z,11.05
2022-11-07T17:20:41.124Z,7.05
2022-11-07T17:23:12.808Z,7.78
2022-11-07T17:25:49.180Z,6.40
2022-11-07T17:28:22.593Z,6.30
2022-11-07T17:30:55.544Z,7.22
2022-11-07T17:33:28.087Z,7.90
2022-11-07T17:36:01.040Z,7.93
2022-11-07T17:38:33.631Z,8.57
2022-11-07T17:41:17.462Z,8.95
2022-11-07T17:43:50.745Z,9.27
2022-11-07T17:46:28.278Z,9.52
2022-11-07T17:49:01.897Z,12.15
2022-11-07T17:51:38.337Z,13.88
2022-11-07T17:54:12.347Z,12.57
2022-11-07T17:56:45.267Z,11.20
2022-11-07T17:59:18.839Z,10.88
2022-11-07T18:01:51.948Z,7.80
2022-11-07T18:04:24.659Z,10.15
2022-11-07T18:06:57.500Z,7.47
2022-11-07T18:09:30.233Z,6.93
2022-11-07T18:12:03.731Z,7.05
2022-11-07T18:14:36.468Z,7.03
2022-11-07T18:17:09.296Z,7.32
2022-11-07T18:19:41.933Z,7.88
2022-11-07T18:22:14.934Z,8.57
2022-11-07T18:24:47.539Z,7.55
2022-11-07T18:27:20.500Z,7.07
2022-11-07T18:29:53.195Z,6.90
2022-11-07T18:32:27.654Z,7.25
2022-11-07T18:35:06.505Z,6.80
2022-11-07T18:37:39.601Z,8.50
2022-11-07T18:40:12.417Z,7.93
2022-11-07T18:42:46.034Z,7.65
2022-11-07T18:45:18.693Z,9.30
2022-11-07T18:47:51.612Z,10.25
2022-11-07T18:50:24.272Z,9.30
2022-11-07T18:52:57.230Z,8.52
2022-11-07T18:55:29.692Z,8.40
2022-11-07T18:58:02.597Z,7.13
2022-11-07T19:00:35.313Z,6.90
2022-11-07T19:03:08.205Z,7.85
2022-11-07T19:05:41.371Z,7.97
2022-11-07T19:08:14.571Z,7.63
2022-11-07T19:10:47.412Z,6.80
2022-11-07T19:13:20.355Z,6.15
2022-11-07T19:15:53.540Z,6.43
2022-11-07T19:18:26.376Z,6.18
2022-11-07T19:20:58.968Z,8.75
2022-11-07T19:23:32.232Z,8.02
2022-11-07T19:26:05.404Z,7.65
2022-11-07T19:28:38.355Z,7.95
2022-11-07T19:31:13.276Z,6.28
2022-11-07T19:33:47.046Z,5.97
2022-11-07T19:36:20.600Z,6.38
2022-11-07T19:38:54.123Z,7.18
2022-11-07T19:41:26.671Z,5.53
2022-11-07T19:44:04.658Z,5.07
2022-11-07T19:46:37.276Z,5.07
2022-11-07T19:49:10.306Z,5.30
2022-11-07T19:51:43.262Z,6.35
2022-11-07T19:54:17.330Z,6.40
2022-11-07T19:56:53.263Z,5.22
2022-11-07T19:59:30.410Z,6.18
2022-11-07T20:02:31.023Z,5.63
2022-11-07T20:04:55.966Z,5.70
2022-11-07T20:07:28.433Z,5.60
2022-11-07T20:10:01.997Z,5.93
2022-11-07T20:12:34.544Z,6.57
2022-11-07T20:15:07.964Z,6.72
2022-11-07T20:17:40.685Z,6.43
2022-11-07T20:20:14.041Z,7.97
2022-11-07T20:22:47.951Z,6.90
2022-11-07T20:25:21.284Z,6.25
2022-11-07T20:27:53.857Z,6.90
2022-11-07T20:30:26.840Z,6.38
2022-11-07T20:32:59.387Z,6.13
2022-11-07T20:35:32.273Z,6.38
2022-11-07T20:38:06.345Z,7.07
2022-11-07T20:40:39.200Z,5.68
2022-11-07T20:43:12.441Z,5.47
2022-11-07T20:45:45.256Z,6.35
2022-11-07T20:48:18.621Z,5.35
2022-11-07T20:50:51.790Z,5.28
2022-11-07T20:53:24.284Z,6.28
2022-11-07T20:55:57.079Z,6.82
2022-11-07T20:58:29.595Z,6.90
2022-11-07T21:01:02.686Z,5.85
2022-11-07T21:03:35.369Z,6.72
2022-11-07T21:06:11.728Z,5.82
2022-11-07T21:08:45.448Z,6.32
2022-11-07T21:11:18.519Z,7.38
2022-11-07T21:13:53.369Z,6.80
2022-11-07T21:18:58.610Z,10.02
2022-11-07T21:21:34.132Z,15.30
2022-11-07T21:24:06.827Z,16.48
2022-11-07T21:26:39.694Z,12.35
2022-11-07T21:29:12.605Z,11.65
2022-11-07T21:31:45.498Z,9.27
2022-11-07T21:34:18.340Z,6.78
2022-11-07T21:36:51.364Z,7.65
2022-11-07T21:39:23.933Z,6.85
2022-11-07T21:49:34.352Z,7.15
2022-11-07T21:52:07.142Z,9.13
